Historique des mesures à Cassis (13260), France
Quotidien Résumé Janvier 3, 2018 Unités:  Métrique    US   Métrique/US
« Précédent (Jour)
Suivant (Jour) »
Quotidien Hebdomadaire Mensuel Annuel Période au choix
  Maximum: Minimum: Moyenne:
Température: -17.8 °C -11.3 °C -9.8 °C
Point de rosée: -17.8 °C -14.6 °C -13.4 °C
Humidité: Humidity % 52 % 62 %
Vitesse du vent: 0 km/h 0 km/h 1.8 km/h
Rafales: 0 km/h - -
Vent:- - NW
Pression: 0 hPa 34269.7 hPa -
Précipitations: 0 mm    
Historical Graphs
 
 
Mesures pour : Janvier 3, 2018
Heure Temperature Point de rosée Pression Vent Vitesse du vent Rafales Humidité Pluie (par heure) Conditions
-17.8 °C -17.8 °C 0 hPa Calm     Humidity % 0 mm SoftwareType W/m2
00:10 -11.2 °C -14.6 °C 34405.1 hPa Calm     66 % 0 mm open2300-1.11 W/m2
01:10 -11.1 °C -14.6 °C 34395 hPa Calm     65 % 0 mm open2300-1.11 W/m2
02:10 -11.3 °C -14.6 °C 34395 hPa Calm     67 % 0 mm open2300-1.11 W/m2
03:10 -11.3 °C -14.3 °C 34384.8 hPa Calm     70 % 0 mm open2300-1.11 W/m2
05:10 -10.6 °C -12.9 °C 34361.1 hPa Calm     75 % 0 mm open2300-1.11 W/m2
06:10 -10.5 °C -12.9 °C 34361.1 hPa Calm     75 % 0 mm open2300-1.11 W/m2
07:10 -10.4 °C -12.6 °C 34361.1 hPa Calm     77 % 0 mm open2300-1.11 W/m2
08:10 -10.3 °C -12 °C 34337.4 hPa Calm     82 % 0 mm open2300-1.11 W/m2
09:10 -9.5 °C -11.3 °C 34327.3 hPa WNW 11.6 km/h 11.6 km/h 81 % 0 mm open2300-1.11 W/m2
11:10 -7.8 °C -10.7 °C 34313.7 hPa Calm     72 % 0 mm open2300-1.11 W/m2
12:10 -7.4 °C -10.9 °C 34303.6 hPa NW 9.8 km/h 11.6 km/h 67 % 0 mm open2300-1.11 W/m2
13:10 -8.4 °C -11.6 °C 34279.9 hPa WNW 8.9 km/h 8.9 km/h 69 % 0 mm open2300-1.11 W/m2
14:10 -8 °C -12.8 °C 34269.7 hPa NNW 9.8 km/h 28.5 km/h 57 % 0 mm open2300-1.11 W/m2
15:10 -8.4 °C -12.9 °C 34269.7 hPa Calm     59 % 0 mm open2300-1.11 W/m2
16:10 -8.5 °C -13.4 °C 34279.9 hPa Calm   13.2 km/h 56 % 0 mm open2300-1.11 W/m2
17:10 -8.6 °C -14.1 °C 34279.9 hPa Calm     52 % 0 mm open2300-1.11 W/m2
18:10 -8.8 °C -13.6 °C 34293.4 hPa Calm   19.6 km/h 57 % 0 mm open2300-1.11 W/m2
19:10 -9 °C -13.9 °C 34313.7 hPa Calm     56 % 0 mm open2300-1.11 W/m2
20:10 -9.1 °C -14.3 °C 34327.3 hPa Calm   4.7 km/h 54 % 0 mm open2300-1.11 W/m2
21:10 -9.2 °C -14.4 °C 34347.6 hPa Calm     54 % 0 mm open2300-1.11 W/m2
22:10 -9.3 °C -14.3 °C 34361.1 hPa Calm     55 % 0 mm open2300-1.11 W/m2
23:10 -9.5 °C -14.5 °C 34347.6 hPa Calm   2.3 km/h 55 % 0 mm open2300-1.11 W/m2
Observations météo à CASSIS
WU-History script by Weather Underground - 1 mb